Du har inga inställningar för hoppväder.nu

Hoppväder.nu

Senast uppdaterat 17:27

UTC-tid

2022-01-17 kl. 16:27


Sol och måne

Solen går upp 8:38 och går ner 15:42 (beräknade cirkatider)
Nästa fullmåne blir imorgon!

METAR

ESOE (Örebro)
(7 minuter sedan)
ESOE 171620Z 29011KT CAVOK 03/M06 Q1016=



ESOK (Karlstad)
(7 minuter sedan)
ESOK 171620Z 29009KT CAVOK 01/M08 Q1018=



ESGR (Skövde)
(7 minuter sedan)
ESGR 171620Z AUTO 30008KT 9999 NCD 02/M08 Q1019=



ESSD (Borlänge)
(7 minuter sedan)
ESSD 171620Z 29013KT CAVOK 02/M05 Q1014=



ESOW (Västerås)
(7 minuter sedan)
ESOW 171620Z 27007KT CAVOK 00/M06 Q1014=



TAF

ESOE (Örebro)
(117 minuter sedan)
ESOE 171430Z 1715/1723 30010KT CAVOK PROB40 1716/1718 32015G25KT=



ESOK (Karlstad)
(117 minuter sedan)
ESOK 171430Z 1715/1722 30010KT CAVOK=



ESGR (Skövde)
ESGR



ESSD (Borlänge)
(117 minuter sedan)
ESSD 171430Z 1715/1717 29010KT 9999 SCT040=



ESOW (Västerås)
(117 minuter sedan)
ESOW 171430Z 1715/1717 29010KT CAVOK=





Kodnycklar till TAF och METAR






LHP

(Örebro är område se32g i Delområde 4)

Översikt

ÖVERSIKT FÖR OMRÅDE se3 UTFÄRDAD 171235

GÄLLANDE DEN 17 JANUARI 2022 MELLAN 13 OCH 21 UTC


Väderöversikt

En nordvästlig luftström råder över södra Sverige.

Sikt under 5 kilometer eller molnbas under 1000 fot
15-19UTC: Område se31 och se34
19-21UTC: Hela området utom se31


Måttlig eller svår isbildning
Väntas inte förekomma under perioden

Måttlig eller svår turbulens
13-15UTC: Hela området utom se31
15-17UTC: Område se33


Delområde 4

PROGNOS FÖR OMRÅDE se32 UTFÄRDAD 171235
GÄLLANDE DEN 17 JANUARI 2022 MELLAN 13 OCH 21 UTC

Måttlig eller svår turbulens
13-15UTC: Område se32c,se32b,se32a,se32f,se32j,se32i: måttlig turbulens SFC - 3000ft.

13-21UTC: Område se32d,se32h,se32g,se32e: Väntas inte förekomma under perioden

15-21UTC: Område se32c,se32b,se32a,se32f,se32j,se32i: Väntas inte förekomma under perioden


Måttlig eller svår isbildning
13-21UTC: I hela området: Väntas inte förekomma under perioden

Sikt/Väder/Moln
13-19UTC: Område se32a,se32g,se32f,se32e: Sikt >8km. Molnbas >2000ft.

13-21UTC: Område se32d,se32c,se32b,se32h,se32j,se32i: Sikt >8km. Molnbas >2000ft.

19-21UTC: Område se32a,se32g,se32e: Sikt 3km - >8km i snöbyar. Molnbas >2000ft.
Område se32f: Sikt >8km, lokalt 3km - 5km i snöbyar. Molnbas >2000ft.


Molnöversida
13-19UTC: Område se32a,se32g,se32f,se32e: Ingen prognos

13-21UTC: Område se32d,se32c,se32b,se32h,se32j,se32i: Ingen prognos

19-21UTC: Område se32a,se32g,se32f,se32e: Molnöversida FL110.


CB/TCU Moln
13-19UTC: Område se32a,se32g,se32f,se32e: Väntas inte förekomma under perioden

13-21UTC: Område se32d,se32c,se32b,se32h,se32j,se32i: Väntas inte förekomma under perioden

19-21UTC: Område se32a,se32g,se32f,se32e: TCU


Nollgradersisoterm
13-19UTC: Noll grader SFC - 2000ft.
19-21UTC: Noll grader SFC - 1000ft.

Vind vid marken
13-15UTC: Område se32d: V-NV/3-11 knop, byar upp till 20 knop.
Område se32e: V-NV/4-11 knop, byar upp till 22 knop.
Område se32h: V-NV/5-15 knop, byar upp till 26 knop.
Område se32b: NV/8-25 knop, byar upp till 34 knop.
Område se32g: V-NV/3-13 knop, byar upp till 25 knop.
Område se32c: NV/10-27 knop, byar upp till 38 knop.
Område se32f: NV/5-11 knop, byar upp till 24 knop.
Område se32i: V-NV/7-21 knop, byar upp till 27 knop.
Område se32a: NV-N/7-30 knop, byar upp till 44 knop.
Område se32j: NV/8-20 knop, byar upp till 29 knop.

15-17UTC: Område se32i: V-NV/5-19 knop, byar upp till 27 knop.
Område se32a: V-NV/5-25 knop, byar upp till 36 knop.
Område se32e: V/2-12 knop, byar upp till 17 knop.
Område se32b: V-NV/6-26 knop, byar upp till 32 knop.
Område se32d: V/2-13 knop, byar upp till 23 knop.
Område se32h: V-NV/3-14 knop, byar upp till 22 knop.
Område se32c: NV/7-26 knop, byar upp till 35 knop.
Område se32f: V-NV/4-11 knop, byar upp till 18 knop.
Område se32j: V-NV/6-20 knop, byar upp till 26 knop.
Område se32g: V-NV/5-14 knop, byar upp till 22 knop.

17-19UTC: Område se32h: V-NV/4-20 knop, byar upp till 26 knop.
Område se32j: V-NV/2-22 knop, byar upp till 30 knop.
Område se32c: V-NV/6-24 knop, byar upp till 32 knop.
Område se32i: V-NV/5-22 knop, byar upp till 29 knop.
Område se32d: V-NV/5-15 knop, byar upp till 28 knop.
Område se32b: V-NV/6-24 knop, byar upp till 33 knop.
Område se32a: V-NV/6-24 knop, byar upp till 30 knop.
Område se32g: V-NV/4-13 knop, byar upp till 21 knop.
Område se32e: V-NV/3-16 knop, byar upp till 24 knop.
Område se32f: V-NV/5-11 knop, byar upp till 19 knop.

19-21UTC: Område se32a: NV/7-26 knop, byar upp till 33 knop.
Område se32i: NV/6-22 knop, byar upp till 32 knop.
Område se32c: NV/7-25 knop, byar upp till 31 knop.
Område se32h: NV/7-19 knop, byar upp till 27 knop.
Område se32f: NV/6-12 knop, byar upp till 23 knop.
Område se32e: V-NV/4-14 knop, byar upp till 25 knop.
Område se32g: NV/6-13 knop, byar upp till 24 knop.
Område se32b: NV/6-25 knop, byar upp till 33 knop.
Område se32j: NV/4-23 knop, byar upp till 32 knop.
Område se32d: NV/6-15 knop, byar upp till 27 knop.


Genomsnittlig vind och temperatur för området
2000ft:
13-15UTC: 330/29kt -2.
15-17UTC: 320/33kt -2.
17-19UTC: 330/37kt -1.
19-21UTC: 340/39kt -2.

FL50:
13-15UTC: 350/34kt -6.
15-17UTC: 350/33kt -6.
17-19UTC: 340/34kt -6.
19-21UTC: 350/32kt -6.

FL100:
13-15UTC: 340/39kt -18.
15-17UTC: 340/42kt -19.
17-19UTC: 340/38kt -19.
19-21UTC: 350/44kt -18.

Lägsta QNH
1004 hPa, stigande.

OBS! endast utbredd måttlig eller svår isbildning och turbulens prognostiseras i LLF.
Avsaknad av isbildning och turbulens i prognosen utesluter inte förekomst av lätt isbildning och turbulens.
För indikation på lätt isbildning, var vänlig kontrollera om prognosen för molntopp ligger högre än nollgradersisotermen.
Förekomst av TCU eller CB medför alltid en risk för måttlig eller svår isbildning och turbulens även om det inte framgår explicit av prognosen.





Spotting

Hur fungerar spotthjälpen och Vindkartan?

Markvind är ca 3-7 m/s med byar på 11 m/s.
Vind på 600 m ca 17 m/s.
Vind på 1500 m ca 17 m/s.
Vind på 3000 m ca 22 m/s.
FXB flyger ca 14 m/s över marken på finalen.
Du driver ca 972 m bakåt i frifall. (1296 m)
Lämplig spot är 47 sekunder eller 677 m efter gropen.
(70 s eller 1008 m)
För små grupper eller ensamhoppare bör man vänta 10-14 sekunder mellan grupperna.
För större grupper bör man vänta 21-25 sekunder mellan grupperna.


Vindkartan

Senast uppdaterad 17:27




All data kommer från LFV.se